Delhi, LA

3:18 PM CDT on October 31, 2014 (GMT -0500)
Bastrop | Change Station
CLOSE
Current Station
Airport
Location: Bastrop,
Elevation: 167 ft
Nearby Weather Stations
Active Advisory: Freeze Watch

Elev 167 ft 32.76 °N, 91.88 °W | Updated 23 minutes ago

Partly Cloudy
Partly Cloudy
68 °F
Feels Like 68 °F
N
7
Wind Variable Wind from North
Gusts 22 mph

Today
High -- | Low -- °F
--% Chance of Precip.
Yesterday
High -- | Low -- °F
Precip. -- in
7:22 AM 6:16 PM
First Quarter, 58% visible
Pressure 30.15 in
Visibility 10.0 miles
Clouds Scattered Clouds 4800 ft
Dew Point 44 °F
Humidity 42%
Rainfall 0.00 in
Snow Depth Not available.
UV 3 out of 12
Pollen 2.30 out of 12
Air Quality Not available.
Flu Activity Not available.
METAR KBQP 311955Z AUTO 35006G19KT 10SM SCT048 20/07 A3015 RMK AO2 T01970065

More Conditions Fewer Conditions

Pressure 30.15 in
Visibility 10.0 miles
Clouds Scattered Clouds 4800 ft
Dew Point 44 °F
Humidity 42%
Rainfall 0.00 in
Snow Depth Not available.
UV 3 out of 12
Pollen 2.30 out of 12
Air Quality Not available.
Flu Activity Not available.
METAR KBQP 311955Z AUTO 35006G19KT 10SM SCT048 20/07 A3015 RMK AO2 T01970065

More Conditions Fewer Conditions

10-Day Weather Forecast

Almanac

Astronomy

Oct. 31, 2014 Rise Set
Actual Time
Civil Twilight
Nautical Twilight
Astronomical Twilight
Moon
Length of Visible Light
Length of Day
Tomorrow will be .
, % of the Moon is Illuminated

Today's Extremes

State Highs State Lows

Community

WunderPhotos

Upload Photos

1,766,717 photos uploaded!

WunderBlogs® & News

Nearby

Air Quality

  Air Quality AQ Index Pollutant
Not available.

Snow Depth

Station Depth Elevation

Earthquake Activity

City Distance Mag. Time & Date
Minimum magnitude displayed is 2.5.

Coastal Water Temperatures

Place Temperature

Nearby Weather Stations